createdAt,value
2022-10-04T00:08:47.556Z,10.37
2022-10-04T00:19:20.487Z,10.38
2022-10-04T00:29:27.817Z,10.52
2022-10-04T00:39:34.796Z,10.55
2022-10-04T00:49:43.271Z,10.59
2022-10-04T00:59:48.878Z,10.54
2022-10-04T01:09:58.072Z,10.41
2022-10-04T01:20:02.535Z,10.29
2022-10-04T01:30:17.998Z,10.29
2022-10-04T01:40:22.409Z,10.33
2022-10-04T01:50:34.959Z,10.34
2022-10-04T02:00:46.459Z,10.41
2022-10-04T02:10:52.830Z,10.36
2022-10-04T02:20:57.181Z,10.38
2022-10-04T02:31:20.147Z,10.33
2022-10-04T02:41:32.240Z,10.27
2022-10-04T02:51:41.597Z,10.22
2022-10-04T03:01:58.546Z,10.14
2022-10-04T03:12:05.119Z,10.04
2022-10-04T03:22:11.763Z,9.93
2022-10-04T03:32:18.264Z,9.80
2022-10-04T03:42:30.699Z,9.64
2022-10-04T03:52:38.237Z,9.60
2022-10-04T04:02:58.888Z,9.61
2022-10-04T04:13:41.459Z,9.66
2022-10-04T04:23:54.412Z,9.55
2022-10-04T04:34:02.707Z,9.48
2022-10-04T04:44:18.537Z,9.39
2022-10-04T04:54:25.685Z,9.25
2022-10-04T05:04:29.543Z,9.27
2022-10-04T05:14:34.048Z,9.37
2022-10-04T05:24:42.913Z,9.55
2022-10-04T05:34:51.645Z,9.69
2022-10-04T05:44:57.717Z,9.70
2022-10-04T05:55:14.069Z,9.84
2022-10-04T06:05:29.426Z,10.01
2022-10-04T06:16:41.212Z,10.11
2022-10-04T06:27:10.382Z,10.27
2022-10-04T06:37:25.728Z,10.40
2022-10-04T06:47:32.126Z,10.56
2022-10-04T06:57:55.440Z,10.74
2022-10-04T07:08:10.664Z,10.88
2022-10-04T07:18:22.660Z,10.96
2022-10-04T07:28:50.800Z,11.10
2022-10-04T07:39:00.551Z,11.34
2022-10-04T07:49:04.958Z,11.60
2022-10-04T07:59:15.498Z,11.85
2022-10-04T08:09:30.855Z,12.34
2022-10-04T08:19:42.870Z,12.85
2022-10-04T08:30:17.173Z,13.17
2022-10-04T08:40:44.777Z,13.37
2022-10-04T08:51:35.236Z,13.52
2022-10-04T09:02:07.460Z,13.65
2022-10-04T09:12:37.977Z,13.69
2022-10-04T09:23:10.872Z,13.68
2022-10-04T09:33:29.783Z,13.43
2022-10-04T09:43:50.258Z,13.52
2022-10-04T09:54:31.441Z,13.87
2022-10-04T10:04:47.847Z,14.07
2022-10-04T10:15:19.608Z,14.18
2022-10-04T10:25:52.744Z,14.33
2022-10-04T10:36:05.238Z,14.74
2022-10-04T10:46:47.521Z,14.96
2022-10-04T10:57:23.624Z,15.15
2022-10-04T11:07:53.906Z,15.32
2022-10-04T11:18:12.843Z,15.63
2022-10-04T11:28:25.660Z,15.53
2022-10-04T11:38:58.526Z,15.28
2022-10-04T11:49:30.052Z,15.24
2022-10-04T11:59:40.005Z,15.05
2022-10-04T12:10:02.396Z,15.22
2022-10-04T12:20:44.797Z,15.42
2022-10-04T12:31:12.316Z,15.42
2022-10-04T12:41:37.829Z,15.34
2022-10-04T12:51:53.905Z,15.54
2022-10-04T13:02:22.327Z,15.58
2022-10-04T13:12:39.414Z,15.45
2022-10-04T13:22:58.459Z,15.26
2022-10-04T13:33:02.286Z,14.88
2022-10-04T13:43:15.093Z,14.57
2022-10-04T13:53:53.142Z,14.27
2022-10-04T14:04:17.181Z,13.90
2022-10-04T14:14:27.240Z,13.48
2022-10-04T14:24:50.297Z,13.29
2022-10-04T14:35:16.604Z,13.23
2022-10-04T14:45:55.838Z,13.17
2022-10-04T14:56:24.580Z,13.03
2022-10-04T15:06:51.272Z,12.79
2022-10-04T15:16:58.936Z,12.53
2022-10-04T15:27:26.711Z,12.24
2022-10-04T15:37:48.969Z,11.96
2022-10-04T15:48:11.633Z,11.68
2022-10-04T15:58:18.709Z,11.32
2022-10-04T16:08:47.985Z,10.88
2022-10-04T16:19:19.784Z,10.42
2022-10-04T16:29:38.531Z,9.98
2022-10-04T16:40:00.418Z,9.48
2022-10-04T16:50:09.323Z,9.01
2022-10-04T17:00:39.671Z,8.56
2022-10-04T17:10:49.401Z,8.17
2022-10-04T17:21:22.298Z,7.84
2022-10-04T17:31:29.071Z,7.61
2022-10-04T17:41:58.174Z,7.34
2022-10-04T17:52:24.202Z,6.96
2022-10-04T18:03:24.823Z,6.66
2022-10-04T18:13:47.474Z,6.39
2022-10-04T18:24:03.108Z,6.30
2022-10-04T18:34:31.022Z,6.22
2022-10-04T18:44:59.429Z,6.10
2022-10-04T18:55:03.638Z,6.00
2022-10-04T19:05:35.648Z,5.92
2022-10-04T19:15:58.200Z,5.77
2022-10-04T19:26:32.108Z,5.63
2022-10-04T19:36:48.099Z,5.46
2022-10-04T19:47:09.419Z,5.26
2022-10-04T19:57:17.029Z,5.01
2022-10-04T20:07:25.534Z,4.84
2022-10-04T20:17:34.235Z,4.72
2022-10-04T20:27:41.066Z,4.65
2022-10-04T20:37:44.651Z,4.57
2022-10-04T20:47:59.654Z,4.39
2022-10-04T20:58:23.993Z,4.24
2022-10-04T21:08:28.267Z,4.14
2022-10-04T21:18:31.833Z,4.14
2022-10-04T21:28:36.008Z,4.15
2022-10-04T21:38:39.783Z,4.21
2022-10-04T21:48:43.484Z,4.32
2022-10-04T21:58:47.214Z,4.40
2022-10-04T22:08:51.391Z,4.37
2022-10-04T22:18:55.360Z,4.44
2022-10-04T22:28:59.025Z,4.39
2022-10-04T22:39:13.139Z,4.36
2022-10-04T22:49:21.803Z,4.46
2022-10-04T22:59:39.347Z,4.63
2022-10-04T23:09:42.908Z,4.63
2022-10-04T23:19:46.619Z,4.52
2022-10-04T23:29:58.489Z,4.45
2022-10-04T23:40:02.245Z,4.25
2022-10-04T23:50:34.877Z,4.27
